LMML Airport Information

Runway Information
Runway 05 Length 7799 ft width 148 ft
Elevation 297 ft Threshold 0 ft Heading 56
Runway 23 Length 7799 ft Width 148 ft
Elevation 247 ft Threshold 0 ft Heading 236
Runway 13 Length 11627 ft width 197 ft
Elevation 256 ft Threshold 0 ft Heading 135
Runway 31 Length 11627 ft Width 197 ft
Elevation 230 ft Threshold 620 ft Heading 315
Airport Frequencies
Type APP Name APP Frequency 128.15 MHZ
Type Distance R Name Frequency 130.975 MHZ
Type Ground Name Ground Frequency 121.6 MHZ
Type Leaving Name Frequency 123.625 MHZ
Type Runway Name Runway Frequency 138.1 MHZ
Type Volmet Name Frequency 126.8 MHZ
Type Weather Name WX Frequency 127.4 MHZ
Airport Navaids
Type DME Name Malta Frequency 110500 KHZ
Type DME Name Luqa Frequency 109700 KHZ
Type NDB Name Luqa Frequency 416 KHZ
Type NDB Name Malta Frequency 395 KHZ
Airport Weather Information & NOTAM
ADDS - METARS form results

(1740 UTC 07 December 2019)
Data provider http://aviationweather.gov/metar/data/
 
METAR text: LMML 071715Z VRB02KT CAVOK 15/13 Q1023 NOSIG
Conditions at: LMML (LUQA/MALTA , MT) observed 1715 UTC 07 December 2019
Temperature: 15.0°C (59°F)
Dewpoint: 13.0°C (55°F) [RH = 88%]
Pressure (altimeter): 30.21 inches Hg (1023.0 mb)
Winds: variable direction winds at 2 MPH (2 knots; 1.0 m/s)
Visibility: 6 or more miles (10+ km)
Ceiling: ceiling and visibility are OK
Clouds: unknown
Weather: no significant weather observed at this time

METAR text: LMML 071645Z 29003KT CAVOK 16/13 Q1022 NOSIG
Conditions at: LMML (LUQA/MALTA , MT) observed 1645 UTC 07 December 2019
Temperature: 16.0°C (61°F)
Dewpoint: 13.0°C (55°F) [RH = 82%]
Pressure (altimeter): 30.18 inches Hg (1022.0 mb)
Winds: from the WNW (290 degrees) at 3 MPH (3 knots; 1.5 m/s)
Visibility: 6 or more miles (10+ km)
Ceiling: ceiling and visibility are OK
Clouds: unknown
Weather: no significant weather observed at this time

Forecast for: AMD
Text: TAF AMD LMML 071700Z 0718/0818 VRB07KT 9999 FEW020
Forecast period: 1800 UTC 07 December 2019 to 1500 UTC 08 December 2019
Forecast type: FROM: standard forecast or significant change
Winds: variable direction winds at 8 MPH (7 knots; 3.6 m/s)
Visibility: 6 or more miles 10+ km)
Ceiling: at least 12,000 feet AGL
Clouds: few clouds at 2000 feet AGL
Weather: no significant weather forecast for this period
Text: PROB40
Forecast period: 0500 to 1800 UTC 08 December 2019
Forecast type: TEMPORARY: The following changes expected for less than half the time period
Visibility: 5 miles (8 km)
Ceiling: unknown
Clouds: missing
Weather: SHRA  (rain showers)
Text: TEMPO 0805/0818 8000 SHRA
Forecast period: 1500 to 1800 UTC 08 December 2019
Forecast type: BECOMING: Conditions expected to become as follows by 1800 UTC 08 December 2019
Winds: from the E (100 degrees) at 14 MPH (12 knots; 6.2 m/s)
Visibility: 6 or more miles 10+ km)
Ceiling: at least 12,000 feet AGL
Clouds: few clouds at 2000 feet AGL
Weather: no significant weather forecast for this period